Time;durP1;ratioP1;P1;durP2;ratioP2;P2;SDS_P1;SDS_P2;PMS_P1;PMS_P2;Temp;Humidity;BMP_temperature;BMP_pressure;BME280_temperature;BME280_humidity;BME280_pressure;Samples;Min_cycle;Max_cycle;Signal;HPM_P1;HPM_P2
2023/01/23 00:00:35;;;;;;;32.17;27.70;;;4.70;99.90;;;;;;2106468;28;20038;-71
2023/01/23 00:01:35;;;;;;;30.08;26.27;;;4.70;99.90;;;;;;2106835;27;20028;-71
2023/01/23 00:02:36;;;;;;;29.67;26.48;;;4.70;99.90;;;;;;2108893;28;20026;-71
2023/01/23 00:03:36;;;;;;;29.73;26.27;;;4.70;99.90;;;;;;2108542;27;20427;-71
2023/01/23 00:04:37;;;;;;;29.48;25.35;;;4.70;99.90;;;;;;2109252;28;20024;-71
2023/01/23 00:05:37;;;;;;;31.15;26.38;;;4.70;99.90;;;;;;2106931;28;20032;-71
2023/01/23 00:06:39;;;;;;;28.88;25.80;;;4.80;99.90;;;;;;2100704;28;20024;-71
2023/01/23 00:07:40;;;;;;;31.15;26.27;;;4.80;99.90;;;;;;2109357;28;20110;-71
2023/01/23 00:08:42;;;;;;;32.72;26.55;;;4.80;99.90;;;;;;2108258;28;20028;-71
2023/01/23 00:09:42;;;;;;;29.60;26.15;;;4.80;99.90;;;;;;2108254;28;20027;-71
2023/01/23 00:10:43;;;;;;;30.23;26.92;;;4.80;99.90;;;;;;2108483;28;20024;-71
2023/01/23 00:11:43;;;;;;;31.65;26.70;;;4.80;99.90;;;;;;2108413;28;20030;-71
2023/01/23 00:12:44;;;;;;;29.27;25.90;;;4.70;99.90;;;;;;2108498;28;20095;-71
2023/01/23 00:13:45;;;;;;;28.70;24.92;;;4.80;99.90;;;;;;2109171;28;20031;-71
2023/01/23 00:14:46;;;;;;;28.85;25.63;;;4.70;99.90;;;;;;2108763;28;20063;-71
2023/01/23 00:15:47;;;;;;;30.95;26.00;;;4.80;99.90;;;;;;2107289;28;20634;-71
2023/01/23 00:16:47;;;;;;;28.35;25.45;;;4.80;99.90;;;;;;2106397;28;20020;-71
2023/01/23 00:17:48;;;;;;;27.73;24.52;;;4.80;99.90;;;;;;2108346;28;20042;-71
2023/01/23 00:18:50;;;;;;;28.52;25.63;;;4.80;99.90;;;;;;2107369;28;20531;-71
2023/01/23 00:19:55;;;;;;;29.83;26.60;;;4.80;99.90;;;;;;2107855;28;20069;-71
2023/01/23 00:20:55;;;;;;;26.75;23.88;;;4.80;99.90;;;;;;2107829;28;20063;-71
2023/01/23 00:21:58;;;;;;;28.27;23.95;;;4.80;99.90;;;;;;2107328;28;20027;-71
2023/01/23 00:22:59;;;;;;;28.48;24.88;;;4.80;99.90;;;;;;2108797;28;20016;-71
2023/01/23 00:24:00;;;;;;;30.90;25.85;;;4.80;99.90;;;;;;2105411;28;20085;-71
2023/01/23 00:25:01;;;;;;;27.48;24.55;;;4.80;99.90;;;;;;2106675;28;20024;-71
2023/01/23 00:26:06;;;;;;;28.50;25.33;;;4.80;99.90;;;;;;2105648;28;20032;-71
2023/01/23 00:27:07;;;;;;;26.52;23.77;;;4.90;99.90;;;;;;2109510;28;20483;-71
2023/01/23 00:28:07;;;;;;;27.58;23.50;;;4.80;99.90;;;;;;2108528;28;20368;-71
2023/01/23 00:29:08;;;;;;;29.23;24.60;;;4.80;99.90;;;;;;2110327;28;20861;-71
2023/01/23 00:30:09;;;;;;;27.17;24.30;;;4.90;99.90;;;;;;2106931;28;20356;-71
2023/01/23 00:31:31;;;;;;;26.70;23.90;;;4.90;99.90;;;;;;2108086;28;20053;-71
2023/01/23 00:32:32;;;;;;;24.80;22.25;;;4.80;99.90;;;;;;2106832;28;20076;-71
2023/01/23 00:33:32;;;;;;;25.27;22.67;;;4.80;99.90;;;;;;2108413;28;20032;-70
2023/01/23 00:34:33;;;;;;;25.83;23.00;;;4.80;99.90;;;;;;2105996;28;20020;-70
2023/01/23 00:35:34;;;;;;;25.58;22.88;;;4.80;99.90;;;;;;2108249;28;20086;-70
2023/01/23 00:36:37;;;;;;;25.67;22.92;;;4.80;99.90;;;;;;2107797;28;20052;-71
2023/01/23 00:37:37;;;;;;;26.08;23.02;;;4.80;99.90;;;;;;2107180;28;20457;-71
2023/01/23 00:38:38;;;;;;;26.73;23.90;;;4.80;99.90;;;;;;2108658;28;20053;-71
2023/01/23 00:39:39;;;;;;;26.83;23.92;;;4.80;99.90;;;;;;2108843;28;20020;-71
2023/01/23 00:40:40;;;;;;;26.58;23.52;;;4.80;99.90;;;;;;2105758;28;20043;-70
2023/01/23 00:41:40;;;;;;;25.88;22.10;;;4.90;99.90;;;;;;2108730;28;20024;-71
2023/01/23 00:42:41;;;;;;;26.00;22.38;;;4.80;99.90;;;;;;2108054;28;20027;-71
2023/01/23 00:43:41;;;;;;;25.88;23.10;;;4.90;99.90;;;;;;2107813;28;20024;-71
2023/01/23 00:44:42;;;;;;;25.88;23.13;;;4.80;99.90;;;;;;2106875;28;20080;-71
2023/01/23 00:45:42;;;;;;;25.15;22.42;;;4.80;99.90;;;;;;2108636;28;20057;-71
2023/01/23 00:46:43;;;;;;;24.33;21.83;;;4.80;99.90;;;;;;2106251;28;20035;-71
2023/01/23 00:47:44;;;;;;;24.58;21.98;;;4.80;99.90;;;;;;2098748;28;20618;-71
2023/01/23 00:48:44;;;;;;;24.80;22.27;;;4.80;99.90;;;;;;2108707;28;20039;-71
2023/01/23 00:49:45;;;;;;;25.10;22.42;;;4.80;99.90;;;;;;2108163;28;20031;-71
2023/01/23 00:50:46;;;;;;;24.30;21.63;;;4.80;99.90;;;;;;2107498;28;20143;-71
2023/01/23 00:51:46;;;;;;;24.42;21.80;;;4.90;99.90;;;;;;2108710;28;20024;-71
2023/01/23 00:52:47;;;;;;;24.60;22.05;;;4.90;99.90;;;;;;2108671;28;20024;-71
2023/01/23 00:53:47;;;;;;;23.67;21.20;;;4.90;99.90;;;;;;2105571;28;20128;-71
2023/01/23 00:54:48;;;;;;;25.52;22.52;;;4.90;99.90;;;;;;2107331;28;20035;-71
2023/01/23 00:55:49;;;;;;;24.48;21.88;;;4.90;99.90;;;;;;2108010;28;20491;-71
2023/01/23 00:56:49;;;;;;;25.55;21.42;;;4.90;99.90;;;;;;2105767;28;20481;-70
2023/01/23 00:57:50;;;;;;;25.63;22.63;;;4.90;99.90;;;;;;2107233;28;20012;-71
2023/01/23 00:58:50;;;;;;;24.02;21.63;;;4.90;99.90;;;;;;2108266;28;20410;-71
2023/01/23 00:59:51;;;;;;;24.92;22.23;;;4.90;99.90;;;;;;2108296;28;20538;-71
2023/01/23 01:00:51;;;;;;;23.88;21.10;;;4.80;99.90;;;;;;2107792;28;20140;-71
2023/01/23 01:01:52;;;;;;;24.20;20.50;;;4.90;99.90;;;;;;2108716;28;20039;-71
2023/01/23 01:02:52;;;;;;;22.45;20.15;;;4.80;99.90;;;;;;2108793;28;21030;-71
2023/01/23 01:03:53;;;;;;;24.45;20.92;;;4.80;99.90;;;;;;2107159;28;20482;-71
2023/01/23 01:04:53;;;;;;;22.25;19.98;;;4.80;99.90;;;;;;2106250;28;20726;-71
2023/01/23 01:05:54;;;;;;;23.13;20.05;;;4.80;99.90;;;;;;2108337;28;20023;-71
2023/01/23 01:06:55;;;;;;;23.85;19.88;;;4.80;99.90;;;;;;2109168;28;20389;-71
2023/01/23 01:07:55;;;;;;;22.98;20.67;;;4.80;99.90;;;;;;2109667;28;20019;-71
2023/01/23 01:08:56;;;;;;;22.73;20.33;;;4.80;99.90;;;;;;2110026;28;20666;-70
2023/01/23 01:09:57;;;;;;;23.63;21.13;;;4.80;99.90;;;;;;2109989;28;20027;-71
2023/01/23 01:10:57;;;;;;;23.30;20.90;;;4.80;99.90;;;;;;2109751;27;20582;-71
2023/01/23 01:11:58;;;;;;;22.25;19.98;;;4.80;99.90;;;;;;2109136;28;20031;-71
2023/01/23 01:13:01;;;;;;;23.05;20.15;;;4.80;99.90;;;;;;2109451;28;20038;-71
2023/01/23 01:14:01;;;;;;;22.77;20.38;;;4.80;99.90;;;;;;2108200;28;20033;-71
2023/01/23 01:15:02;;;;;;;21.83;19.52;;;4.80;99.90;;;;;;2108504;28;20024;-71
2023/01/23 01:16:03;;;;;;;22.67;20.20;;;4.80;99.90;;;;;;2109436;28;20016;-71
2023/01/23 01:17:04;;;;;;;22.90;20.52;;;4.80;99.90;;;;;;2109470;28;20035;-71
2023/01/23 01:18:05;;;;;;;23.00;20.60;;;4.80;99.90;;;;;;2108786;28;20028;-71
2023/01/23 01:19:05;;;;;;;21.77;19.58;;;4.80;99.90;;;;;;2107931;28;20031;-71
2023/01/23 01:20:07;;;;;;;22.60;20.17;;;4.80;99.90;;;;;;2107982;28;20031;-71
2023/01/23 01:21:08;;;;;;;21.65;19.17;;;4.80;99.90;;;;;;2109031;28;20051;-71
2023/01/23 01:22:09;;;;;;;22.08;19.77;;;4.80;99.90;;;;;;2109736;28;20408;-71
2023/01/23 01:23:10;;;;;;;22.13;19.83;;;4.80;99.90;;;;;;2108562;27;20028;-71
2023/01/23 01:24:11;;;;;;;21.73;19.42;;;4.80;99.90;;;;;;2108852;28;20027;-71
2023/01/23 01:25:11;;;;;;;21.88;19.67;;;4.80;99.90;;;;;;2109121;28;20119;-70
2023/01/23 01:26:12;;;;;;;22.63;20.33;;;4.80;99.90;;;;;;2109989;28;20028;-71
2023/01/23 01:27:12;;;;;;;21.98;19.33;;;4.80;99.90;;;;;;2109854;28;20012;-71
2023/01/23 01:28:13;;;;;;;22.02;19.55;;;4.80;99.90;;;;;;2112334;28;20446;-71
2023/01/23 01:29:13;;;;;;;22.65;20.30;;;4.80;99.90;;;;;;2108139;28;20345;-71
2023/01/23 01:30:16;;;;;;;23.23;20.70;;;4.80;99.90;;;;;;2108700;28;20096;-71
2023/01/23 01:31:16;;;;;;;21.55;19.25;;;4.80;99.90;;;;;;2110038;28;20669;-71
2023/01/23 01:32:17;;;;;;;24.17;21.17;;;4.80;99.90;;;;;;2108668;28;20557;-71
2023/01/23 01:33:17;;;;;;;22.00;19.73;;;4.80;99.90;;;;;;2108925;28;20024;-71
2023/01/23 01:34:18;;;;;;;22.42;20.10;;;4.80;99.90;;;;;;2107217;28;20063;-70
2023/01/23 01:35:20;;;;;;;24.27;20.55;;;4.80;99.90;;;;;;2107172;28;20024;-71
2023/01/23 01:36:22;;;;;;;21.67;19.38;;;4.80;99.90;;;;;;2108298;28;20020;-71
2023/01/23 01:37:24;;;;;;;21.33;19.13;;;4.80;99.90;;;;;;2109662;28;20021;-71
2023/01/23 01:38:24;;;;;;;25.30;20.58;;;4.80;99.90;;;;;;2108081;28;20115;-70
2023/01/23 01:39:25;;;;;;;24.40;21.35;;;4.80;99.90;;;;;;2109597;28;20024;-71
2023/01/23 01:40:31;;;;;;;22.35;19.95;;;4.80;99.90;;;;;;2110415;28;20031;-71
2023/01/23 01:41:31;;;;;;;22.60;20.20;;;4.80;99.90;;;;;;2108567;28;20024;-71
2023/01/23 01:42:46;;;;;;;25.08;20.80;;;4.80;99.90;;;;;;2110341;28;20502;-71
2023/01/23 01:43:46;;;;;;;22.67;20.30;;;4.80;99.90;;;;;;2108611;27;20044;-71
2023/01/23 01:44:56;;;;;;;23.83;21.33;;;4.80;99.90;;;;;;2107170;28;20796;-71
2023/01/23 01:46:16;;;;;;;25.95;21.40;;;4.80;99.90;;;;;;2108905;28;20049;-71
2023/01/23 01:47:16;;;;;;;23.65;21.08;;;4.70;99.90;;;;;;2108708;28;20024;-71
2023/01/23 01:48:19;;;;;;;24.88;22.02;;;4.70;99.90;;;;;;2108886;28;20479;-71
2023/01/23 01:49:28;;;;;;;25.73;21.40;;;4.70;99.90;;;;;;2109379;28;20529;-71
2023/01/23 01:50:29;;;;;;;25.23;22.50;;;4.70;99.90;;;;;;2109538;28;20054;-71
2023/01/23 01:51:39;;;;;;;24.33;21.67;;;4.70;99.90;;;;;;2109781;28;22107;-71
2023/01/23 01:52:40;;;;;;;24.00;20.92;;;4.70;99.90;;;;;;2109805;28;20036;-71
2023/01/23 01:53:41;;;;;;;22.80;20.50;;;4.70;99.90;;;;;;2109691;28;20512;-71
2023/01/23 01:54:54;;;;;;;25.08;21.30;;;4.70;99.90;;;;;;2108505;28;20028;-71
2023/01/23 01:55:56;;;;;;;23.42;20.88;;;4.70;99.90;;;;;;2109960;28;20035;-71
2023/01/23 01:57:02;;;;;;;26.27;21.33;;;4.70;99.90;;;;;;2108727;28;20024;-71
2023/01/23 01:58:03;;;;;;;23.85;21.25;;;4.70;99.90;;;;;;2107618;28;20008;-71
2023/01/23 01:59:04;;;;;;;23.98;21.15;;;4.70;99.90;;;;;;2108188;28;20114;-70
2023/01/23 02:00:11;;;;;;;25.42;21.20;;;4.70;99.90;;;;;;2109071;28;20023;-71
2023/01/23 02:01:12;;;;;;;24.23;21.63;;;4.70;99.90;;;;;;2108375;27;20035;-70
2023/01/23 02:02:27;;;;;;;23.88;21.08;;;4.70;99.90;;;;;;2110728;28;20028;-71
2023/01/23 02:03:28;;;;;;;23.42;20.88;;;4.70;99.90;;;;;;2110528;28;20076;-71
2023/01/23 02:04:30;;;;;;;23.50;20.73;;;4.70;99.90;;;;;;2108259;28;20023;-71
2023/01/23 02:05:38;;;;;;;24.67;21.98;;;4.70;99.90;;;;;;2108537;28;20063;-71
2023/01/23 02:06:39;;;;;;;23.88;21.17;;;4.70;99.90;;;;;;2108836;28;20770;-71
2023/01/23 02:07:43;;;;;;;26.23;21.55;;;4.70;99.90;;;;;;2108852;27;20762;-71
2023/01/23 02:08:58;;;;;;;25.33;21.25;;;4.70;99.90;;;;;;2109342;28;20130;-71
2023/01/23 02:10:01;;;;;;;23.92;21.42;;;4.70;99.90;;;;;;2107881;28;20043;-71
2023/01/23 02:11:04;;;;;;;23.25;20.27;;;4.70;99.90;;;;;;2108055;28;20083;-71
2023/01/23 02:12:04;;;;;;;25.15;20.95;;;4.70;99.90;;;;;;2106707;28;20031;-71
2023/01/23 02:13:20;;;;;;;25.27;21.75;;;4.70;99.90;;;;;;2109110;28;20027;-71
2023/01/23 02:14:24;;;;;;;25.25;22.52;;;4.70;99.90;;;;;;2110181;28;20157;-70
2023/01/23 02:15:25;;;;;;;26.40;22.25;;;4.70;99.90;;;;;;2109173;28;20024;-70
2023/01/23 02:16:28;;;;;;;24.17;21.65;;;4.70;99.90;;;;;;2109049;28;20574;-71
2023/01/23 02:17:30;;;;;;;24.75;22.08;;;4.70;99.90;;;;;;2107553;27;20157;-70
2023/01/23 02:18:33;;;;;;;25.05;21.60;;;4.70;99.90;;;;;;2107664;28;20024;-70
2023/01/23 02:19:44;;;;;;;25.98;22.63;;;4.70;99.90;;;;;;2107106;28;20827;-71
2023/01/23 02:20:46;;;;;;;23.83;21.33;;;4.80;99.90;;;;;;2109727;28;20395;-70
2023/01/23 02:21:50;;;;;;;24.50;21.80;;;4.70;99.90;;;;;;2109448;28;20016;-70
2023/01/23 02:23:01;;;;;;;26.02;21.95;;;4.70;99.90;;;;;;2109146;28;20055;-70
2023/01/23 02:24:34;;;;;;;24.95;22.25;;;4.70;99.90;;;;;;2108251;27;20019;-71
2023/01/23 02:26:02;;;;;;;28.85;24.52;;;4.70;99.90;;;;;;2107663;28;20051;-71
2023/01/23 02:27:03;;;;;;;27.60;24.55;;;4.70;99.90;;;;;;2105099;28;20019;-71
2023/01/23 02:28:03;;;;;;;24.77;22.17;;;4.70;99.90;;;;;;2108681;28;20505;-71
2023/01/23 02:29:05;;;;;;;26.42;23.52;;;4.70;99.90;;;;;;2109262;28;20069;-71
2023/01/23 02:30:07;;;;;;;29.02;23.85;;;4.70;99.90;;;;;;2107371;28;20032;-70
2023/01/23 02:31:08;;;;;;;26.33;22.88;;;4.70;99.90;;;;;;2110833;28;20032;-70
2023/01/23 02:32:09;;;;;;;25.15;22.40;;;4.70;99.90;;;;;;2109791;28;20059;-70
2023/01/23 02:33:20;;;;;;;26.77;22.80;;;4.70;99.90;;;;;;2108123;28;20119;-71
2023/01/23 02:34:22;;;;;;;25.13;22.40;;;4.70;99.90;;;;;;2109433;28;20580;-71
2023/01/23 02:35:29;;;;;;;26.85;22.98;;;4.70;99.90;;;;;;2107653;28;21588;-71
2023/01/23 02:36:32;;;;;;;26.80;23.08;;;4.70;99.90;;;;;;2108850;28;20038;-71
2023/01/23 02:37:35;;;;;;;28.50;24.85;;;4.80;99.90;;;;;;2108630;28;20035;-71
2023/01/23 02:39:03;;;;;;;26.38;22.60;;;4.70;99.90;;;;;;2107879;28;20043;-71
2023/01/23 02:40:04;;;;;;;28.38;23.48;;;4.70;99.90;;;;;;2106739;28;20063;-71
2023/01/23 02:41:08;;;;;;;27.67;23.83;;;4.70;99.90;;;;;;2109644;28;20031;-70
2023/01/23 02:42:09;;;;;;;27.92;24.35;;;4.70;99.90;;;;;;2107614;28;20027;-71
2023/01/23 02:43:14;;;;;;;27.75;24.05;;;4.70;99.90;;;;;;2108407;28;20434;-71
2023/01/23 02:44:16;;;;;;;27.75;23.35;;;4.70;99.90;;;;;;2112707;27;20012;-71
2023/01/23 02:45:17;;;;;;;25.38;22.63;;;4.70;99.90;;;;;;2103470;28;20019;-71
2023/01/23 02:46:19;;;;;;;29.80;23.27;;;4.80;99.90;;;;;;2110479;27;20027;-71
2023/01/23 02:47:20;;;;;;;25.67;22.42;;;4.70;99.90;;;;;;2105093;28;21002;-71
2023/01/23 02:48:21;;;;;;;30.50;24.85;;;4.70;99.90;;;;;;2108357;28;20448;-71
2023/01/23 02:49:22;;;;;;;25.92;23.13;;;4.70;99.90;;;;;;2108241;28;20027;-71
2023/01/23 02:50:23;;;;;;;27.38;23.77;;;4.70;99.90;;;;;;2108082;28;20028;-71
2023/01/23 02:51:23;;;;;;;27.38;23.73;;;4.70;99.90;;;;;;2107266;28;20024;-71
2023/01/23 02:52:24;;;;;;;26.15;22.63;;;4.70;99.90;;;;;;2109076;28;20126;-71
2023/01/23 02:53:25;;;;;;;25.58;22.70;;;4.70;99.90;;;;;;2108017;28;20032;-70
2023/01/23 02:54:26;;;;;;;27.08;22.42;;;4.70;99.90;;;;;;2109032;28;20380;-71
2023/01/23 02:55:30;;;;;;;28.25;23.35;;;4.70;99.90;;;;;;2106096;28;20059;-71
2023/01/23 02:56:31;;;;;;;25.42;22.67;;;4.70;99.90;;;;;;2109630;28;20036;-71
2023/01/23 02:57:31;;;;;;;25.38;21.77;;;4.70;99.90;;;;;;2108351;28;20035;-71
2023/01/23 03:01:10;;;;;;;26.10;21.80;;;4.70;99.90;;;;;;2109222;28;20028;-71
2023/01/23 03:02:11;;;;;;;29.25;23.35;;;4.70;99.90;;;;;;2108135;28;20542;-71
2023/01/23 03:03:12;;;;;;;25.67;22.88;;;4.70;99.90;;;;;;2108019;28;20099;-71
2023/01/23 03:04:13;;;;;;;27.63;22.15;;;4.60;99.90;;;;;;2108632;28;20482;-71
2023/01/23 03:05:13;;;;;;;24.83;22.10;;;4.60;99.90;;;;;;2107901;28;20509;-71
2023/01/23 03:06:14;;;;;;;25.02;22.00;;;4.60;99.90;;;;;;2106867;28;20073;-71
2023/01/23 03:07:15;;;;;;;27.10;22.17;;;4.60;99.90;;;;;;2110834;28;20016;-71
2023/01/23 03:08:15;;;;;;;25.67;22.60;;;4.60;99.90;;;;;;2110789;28;20030;-71
2023/01/23 03:09:17;;;;;;;24.45;21.67;;;4.60;99.90;;;;;;2107826;28;20601;-71
2023/01/23 03:10:17;;;;;;;25.45;22.15;;;4.60;99.90;;;;;;2108547;28;20368;-70
2023/01/23 03:11:18;;;;;;;25.83;22.50;;;4.60;99.90;;;;;;2108050;27;20139;-71
2023/01/23 03:12:18;;;;;;;27.45;23.40;;;4.60;99.90;;;;;;2107761;28;20034;-71
2023/01/23 03:13:19;;;;;;;26.75;23.17;;;4.60;99.90;;;;;;2107504;28;20024;-71
2023/01/23 03:14:22;;;;;;;26.05;22.80;;;4.60;99.90;;;;;;2107353;28;20093;-71
2023/01/23 03:15:23;;;;;;;27.05;23.10;;;4.60;99.90;;;;;;2108561;28;20059;-71
2023/01/23 03:16:24;;;;;;;26.95;22.88;;;4.60;99.90;;;;;;2108470;28;20035;-71
2023/01/23 03:17:24;;;;;;;27.63;23.60;;;4.60;99.90;;;;;;2108883;28;20025;-71
2023/01/23 03:18:26;;;;;;;26.38;22.08;;;4.60;99.90;;;;;;2110408;28;20028;-71
2023/01/23 03:19:27;;;;;;;28.00;24.10;;;4.60;99.90;;;;;;2109322;28;20499;-70
2023/01/23 03:20:27;;;;;;;26.10;22.55;;;4.60;99.90;;;;;;2106297;28;20518;-71
2023/01/23 03:21:28;;;;;;;26.38;22.73;;;4.60;99.90;;;;;;2107730;28;20048;-71
2023/01/23 03:22:28;;;;;;;28.75;23.90;;;4.60;99.90;;;;;;2106848;28;20750;-71
2023/01/23 03:23:29;;;;;;;27.52;24.42;;;4.50;99.90;;;;;;2108385;28;20028;-71
2023/01/23 03:24:30;;;;;;;25.88;23.02;;;4.60;99.90;;;;;;2109413;28;20035;-71
2023/01/23 03:25:30;;;;;;;26.02;23.27;;;4.60;99.90;;;;;;2111672;28;20024;-71
2023/01/23 03:26:31;;;;;;;25.50;21.92;;;4.60;99.90;;;;;;2109973;28;20494;-71
2023/01/23 03:27:33;;;;;;;28.15;24.05;;;4.60;99.90;;;;;;2107740;28;20032;-71
2023/01/23 03:31:13;;;;;;;27.92;23.08;;;4.60;99.90;;;;;;2104646;28;20062;-71
2023/01/23 03:32:15;;;;;;;27.50;24.50;;;4.60;99.90;;;;;;2108201;28;20047;-71
2023/01/23 03:33:15;;;;;;;25.70;22.98;;;4.60;99.90;;;;;;2108230;28;20031;-71
2023/01/23 03:34:21;;;;;;;27.13;22.75;;;4.60;99.90;;;;;;2106442;28;20059;-71
2023/01/23 03:35:21;;;;;;;29.83;23.67;;;4.60;99.90;;;;;;2108430;28;20031;-71
2023/01/23 03:36:22;;;;;;;27.35;23.35;;;4.60;99.90;;;;;;2107242;27;20059;-71
2023/01/23 03:37:22;;;;;;;29.83;24.63;;;4.60;99.90;;;;;;2108954;28;20028;-71
2023/01/23 03:38:23;;;;;;;27.08;23.48;;;4.60;99.90;;;;;;2109731;28;21827;-71
2023/01/23 03:42:02;;;;;;;30.40;24.48;;;4.60;99.90;;;;;;2108072;28;20024;-71
2023/01/23 03:43:03;;;;;;;26.83;23.92;;;4.60;99.90;;;;;;2109686;28;20028;-71
2023/01/23 03:44:03;;;;;;;29.75;23.95;;;4.60;99.90;;;;;;2108831;28;20094;-71
2023/01/23 03:45:05;;;;;;;29.98;24.92;;;4.60;99.90;;;;;;2107896;28;20032;-71
2023/01/23 03:46:05;;;;;;;30.02;25.05;;;4.60;99.90;;;;;;2107507;28;20672;-70
2023/01/23 03:47:06;;;;;;;29.33;24.45;;;4.60;99.90;;;;;;2108044;28;20394;-70
2023/01/23 03:48:07;;;;;;;28.00;24.20;;;4.60;99.90;;;;;;2108357;28;20031;-71
2023/01/23 03:49:07;;;;;;;27.48;23.95;;;4.60;99.90;;;;;;2107846;28;20557;-71
2023/01/23 03:50:08;;;;;;;27.67;24.63;;;4.60;99.90;;;;;;2107818;28;20372;-71
2023/01/23 03:51:09;;;;;;;30.77;26.30;;;4.60;99.90;;;;;;2108713;28;20075;-71
2023/01/23 03:52:09;;;;;;;27.98;24.83;;;4.60;99.90;;;;;;2109318;28;20058;-71
2023/01/23 03:53:10;;;;;;;30.38;25.27;;;4.60;99.90;;;;;;2110624;28;20054;-71
2023/01/23 03:54:11;;;;;;;32.28;27.90;;;4.60;99.90;;;;;;2109991;28;20035;-71
2023/01/23 03:55:12;;;;;;;31.52;26.40;;;4.70;99.90;;;;;;2107675;28;21100;-71
2023/01/23 03:56:12;;;;;;;32.22;26.35;;;4.60;99.90;;;;;;2108185;28;20070;-70
2023/01/23 03:57:13;;;;;;;28.92;25.30;;;4.60;99.90;;;;;;2108070;28;20027;-70
2023/01/23 03:58:13;;;;;;;29.75;25.70;;;4.60;99.90;;;;;;2106874;28;20027;-70
2023/01/23 03:59:14;;;;;;;29.10;25.50;;;4.70;99.90;;;;;;2108823;28;20518;-71
2023/01/23 04:00:16;;;;;;;30.17;24.80;;;4.70;99.90;;;;;;2107595;28;20498;-71
2023/01/23 04:01:17;;;;;;;28.70;25.52;;;4.60;99.90;;;;;;2107952;28;20023;-71
2023/01/23 04:02:18;;;;;;;30.02;26.30;;;4.70;99.90;;;;;;2108991;28;20276;-71
2023/01/23 04:03:18;;;;;;;29.08;25.63;;;4.70;99.90;;;;;;2108519;28;20015;-70
2023/01/23 04:04:19;;;;;;;31.05;26.92;;;4.70;99.90;;;;;;2109314;28;20102;-70
2023/01/23 04:05:19;;;;;;;29.92;25.88;;;4.70;99.90;;;;;;2107702;28;20028;-70
2023/01/23 04:06:20;;;;;;;31.10;26.15;;;4.70;99.90;;;;;;2107587;28;20020;-71
2023/01/23 04:07:20;;;;;;;30.65;26.10;;;4.70;99.90;;;;;;2107248;28;20020;-71
2023/01/23 04:08:21;;;;;;;29.17;24.33;;;4.70;99.90;;;;;;2107385;28;20031;-71
2023/01/23 04:09:26;;;;;;;28.45;25.35;;;4.70;99.90;;;;;;2109024;28;20069;-71
2023/01/23 04:10:27;;;;;;;29.70;25.80;;;4.70;99.90;;;;;;2106641;28;20100;-70
2023/01/23 04:11:28;;;;;;;31.95;28.10;;;4.70;99.90;;;;;;2107804;28;20043;-71
2023/01/23 04:12:28;;;;;;;29.48;26.38;;;4.70;99.90;;;;;;2108033;28;20022;-71
2023/01/23 04:13:29;;;;;;;30.33;26.23;;;4.70;99.90;;;;;;2107268;28;20106;-71
2023/01/23 04:14:34;;;;;;;30.70;27.10;;;4.70;99.90;;;;;;2109198;28;20666;-71
2023/01/23 04:15:34;;;;;;;30.55;27.25;;;4.70;99.90;;;;;;2106936;28;20028;-71
2023/01/23 04:16:35;;;;;;;30.58;26.92;;;4.70;99.90;;;;;;2108437;28;20075;-71
2023/01/23 04:17:35;;;;;;;30.27;27.00;;;4.70;99.90;;;;;;2107443;28;20433;-71
2023/01/23 04:18:36;;;;;;;30.05;26.85;;;4.70;99.90;;;;;;2107938;28;20019;-71
2023/01/23 04:19:36;;;;;;;30.70;27.48;;;4.70;99.90;;;;;;2106713;28;20349;-71
2023/01/23 04:20:37;;;;;;;30.38;27.08;;;4.70;99.90;;;;;;2109264;28;20398;-71
2023/01/23 04:21:37;;;;;;;30.58;26.58;;;4.70;99.90;;;;;;2107681;28;20032;-71
2023/01/23 04:22:38;;;;;;;29.52;26.20;;;4.70;99.90;;;;;;2109687;28;20020;-71
2023/01/23 04:23:38;;;;;;;32.17;26.95;;;4.70;99.90;;;;;;2109169;28;20020;-71
2023/01/23 04:24:39;;;;;;;30.30;26.17;;;4.70;99.90;;;;;;2108841;28;20096;-71
2023/01/23 04:25:39;;;;;;;30.17;25.60;;;4.70;99.90;;;;;;2106909;28;20486;-71
2023/01/23 04:26:40;;;;;;;30.50;27.17;;;4.60;99.90;;;;;;2107562;28;20020;-71
2023/01/23 04:27:40;;;;;;;30.92;27.08;;;4.60;99.90;;;;;;2107820;28;20049;-71
2023/01/23 04:28:41;;;;;;;28.70;25.63;;;4.60;99.90;;;;;;2109623;28;20888;-71
2023/01/23 04:29:41;;;;;;;30.73;27.40;;;4.70;99.90;;;;;;2108889;28;20474;-71
2023/01/23 04:30:42;;;;;;;28.80;25.65;;;4.70;99.90;;;;;;2109634;28;20680;-71
2023/01/23 04:31:43;;;;;;;30.83;26.08;;;4.60;99.90;;;;;;2108329;28;20523;-71
2023/01/23 04:32:43;;;;;;;30.02;26.77;;;4.60;99.90;;;;;;2108483;28;20114;-71
2023/01/23 04:33:44;;;;;;;31.38;27.23;;;4.60;99.90;;;;;;2109548;28;20031;-71
2023/01/23 04:34:44;;;;;;;30.15;26.83;;;4.60;99.90;;;;;;2108629;28;20030;-71
2023/01/23 04:36:05;;;;;;;28.90;25.73;;;4.60;99.90;;;;;;2108495;28;20032;-71
2023/01/23 04:37:05;;;;;;;;;;;4.60;99.90;;;;;;2108105;28;20016;-71
2023/01/23 04:38:06;;;;;;;27.67;24.63;;;4.60;99.90;;;;;;2109486;28;19976;-71
2023/01/23 04:39:09;;;;;;;28.67;25.27;;;4.60;99.90;;;;;;2106450;28;20020;-71
2023/01/23 04:40:10;;;;;;;29.08;25.98;;;4.60;99.90;;;;;;2107205;28;20027;-71
2023/01/23 04:41:23;;;;;;;30.13;25.98;;;4.60;99.90;;;;;;2105874;28;20111;-71
2023/01/23 04:42:23;;;;;;;28.40;25.30;;;4.60;99.90;;;;;;2107511;28;20032;-71
2023/01/23 04:43:24;;;;;;;28.52;24.05;;;4.60;99.90;;;;;;2108025;28;20024;-71
2023/01/23 04:44:25;;;;;;;27.63;23.23;;;4.60;99.90;;;;;;2110064;28;20020;-71
2023/01/23 04:45:26;;;;;;;28.55;25.08;;;4.60;99.90;;;;;;2109397;28;20034;-71
2023/01/23 04:46:26;;;;;;;29.30;25.05;;;4.60;99.90;;;;;;2106562;28;20119;-71
2023/01/23 04:47:27;;;;;;;28.67;24.10;;;4.60;99.90;;;;;;2108945;28;20404;-71
2023/01/23 04:48:27;;;;;;;30.48;26.00;;;4.60;99.90;;;;;;2109563;28;20589;-71
2023/01/23 04:49:28;;;;;;;27.92;24.35;;;4.60;99.90;;;;;;2106695;28;20039;-71
2023/01/23 04:50:28;;;;;;;29.50;24.40;;;4.60;99.90;;;;;;2107422;28;20051;-71
2023/01/23 04:51:29;;;;;;;33.03;26.90;;;4.70;99.90;;;;;;2106576;28;20031;-71
2023/01/23 04:52:29;;;;;;;28.95;25.85;;;4.70;99.90;;;;;;2106403;28;20106;-71
2023/01/23 04:53:30;;;;;;;27.80;24.73;;;4.70;99.90;;;;;;2109386;28;20032;-71
2023/01/23 04:54:31;;;;;;;28.55;25.48;;;4.70;99.90;;;;;;2108119;28;20027;-71
2023/01/23 04:55:32;;;;;;;29.42;24.98;;;4.70;99.90;;;;;;2110225;28;20027;-71
2023/01/23 04:56:33;;;;;;;28.20;25.02;;;4.70;99.90;;;;;;2112499;28;20073;-71
2023/01/23 04:57:33;;;;;;;31.67;26.70;;;4.70;99.90;;;;;;2107731;28;20027;-71
2023/01/23 04:58:34;;;;;;;31.02;26.58;;;4.70;99.90;;;;;;2107012;28;20035;-71
2023/01/23 04:59:34;;;;;;;28.48;24.55;;;4.70;99.90;;;;;;2108369;28;20566;-71
2023/01/23 05:00:35;;;;;;;30.45;25.60;;;4.70;99.90;;;;;;2107969;28;20108;-71
2023/01/23 05:01:36;;;;;;;31.00;25.98;;;4.70;99.90;;;;;;2108984;28;20024;-71
2023/01/23 05:02:37;;;;;;;32.85;26.05;;;4.60;99.90;;;;;;2108183;28;20019;-71
2023/01/23 05:03:37;;;;;;;31.00;25.45;;;4.70;99.90;;;;;;2106986;28;20054;-71
2023/01/23 05:04:38;;;;;;;29.38;25.30;;;4.70;99.90;;;;;;2106357;28;20028;-71
2023/01/23 05:05:38;;;;;;;30.38;24.45;;;4.70;99.90;;;;;;2107695;28;20779;-71
2023/01/23 05:06:39;;;;;;;28.30;24.80;;;4.70;99.90;;;;;;2107537;28;20122;-71
2023/01/23 05:07:40;;;;;;;29.60;26.30;;;4.70;99.90;;;;;;2107786;28;20031;-71
2023/01/23 05:08:41;;;;;;;30.23;25.58;;;4.60;99.90;;;;;;2106973;28;20027;-71
2023/01/23 05:09:42;;;;;;;28.95;24.38;;;4.60;99.90;;;;;;2107997;28;20031;-71
2023/01/23 05:10:43;;;;;;;29.23;25.38;;;4.70;99.90;;;;;;2108447;28;20443;-71
2023/01/23 05:11:43;;;;;;;28.88;25.00;;;4.60;99.90;;;;;;2106695;28;20032;-71
2023/01/23 05:12:44;;;;;;;26.63;23.67;;;4.70;99.90;;;;;;2107544;28;20092;-71
2023/01/23 05:13:44;;;;;;;28.27;25.25;;;4.70;99.90;;;;;;2106240;28;20118;-71
2023/01/23 05:14:45;;;;;;;28.77;25.58;;;4.70;99.90;;;;;;2107605;28;20032;-71
2023/01/23 05:15:45;;;;;;;28.77;25.27;;;4.70;99.90;;;;;;2114075;27;20027;-71
2023/01/23 05:16:46;;;;;;;28.58;24.98;;;4.70;99.90;;;;;;2115068;28;20031;-71
2023/01/23 05:17:47;;;;;;;27.60;23.83;;;4.70;99.90;;;;;;2107898;28;20020;-71
2023/01/23 05:18:48;;;;;;;27.60;24.10;;;4.70;99.90;;;;;;2107859;28;20115;-71
2023/01/23 05:19:48;;;;;;;26.48;23.67;;;4.70;99.90;;;;;;2107475;28;20024;-71
2023/01/23 05:20:49;;;;;;;27.48;23.88;;;4.70;99.90;;;;;;2107015;28;20577;-71
2023/01/23 05:21:49;;;;;;;27.02;23.40;;;4.60;99.90;;;;;;2106019;28;20032;-71
2023/01/23 05:22:53;;;;;;;27.08;24.17;;;4.60;99.90;;;;;;2107185;28;20090;-71
2023/01/23 05:23:54;;;;;;;27.90;23.67;;;4.60;99.90;;;;;;2106809;28;20114;-71
2023/01/23 05:24:54;;;;;;;27.45;24.05;;;4.60;99.90;;;;;;2105738;28;20079;-71
2023/01/23 05:25:55;;;;;;;27.70;24.10;;;4.60;99.90;;;;;;2108416;28;20042;-71
2023/01/23 05:26:55;;;;;;;27.70;23.73;;;4.60;99.90;;;;;;2106682;28;20490;-71